Weather at Lethbridge (Mercer Field)

Public forecast

Using degrees Celsius for public forecast. Weather courtesy of forecast.io.

Closest aviation weather report (METAR) to Lethbridge (Mercer Field)

Closest report is Lethbridge County Airport, 10.3 nm (19.1 km) WNW.

2024/05/22 16:37 (retrieved 30 minutes ago)

CYQL 221637Z 35008KT 15SM BKN008 OVC065 08/06 A2975 RMK SC7SC1 SLP089

Closest aviation forecast (TAF) to Lethbridge (Mercer Field)

Closest forecast is Lethbridge County Airport, 10.3 nm (19.1 km) WNW.

2024/05/22 16:03 Ammendment (retrieved 1 hour ago)

TAF AMD TAF AMD CYQL 221600Z 2216/2224 33006KT P6SM BKN006 OVC090 BECMG 2216/2218 BKN020 FM221800 05010KT P6SM BKN020 BECMG 2218/2220 SCT020 BKN040 FM222000 04012G22KT P6SM BKN040 TEMPO 2221/2224 P6SM -SHRA RMK FCST BASED ON AUTO OBS NXT FCST BY 221800Z